createdAt,value
2019-05-01T06:00:33.828Z,79.54
2019-05-01T06:01:33.810Z,79.24
2019-05-01T06:02:33.779Z,79.64
2019-05-01T06:03:35.126Z,79.75
2019-05-01T06:04:33.754Z,79.24
2019-05-01T06:05:33.748Z,79.34
2019-05-01T06:06:33.760Z,79.13
2019-05-01T06:07:33.724Z,78.93
2019-05-01T06:08:33.740Z,78.93
2019-05-01T06:09:33.696Z,79.13
2019-05-01T06:10:33.682Z,79.24
2019-05-01T06:11:35.362Z,79.00
2019-05-01T06:12:33.665Z,79.50
2019-05-01T06:13:33.654Z,79.44
2019-05-01T06:14:33.643Z,79.44
2019-05-01T06:15:36.655Z,79.61
2019-05-01T06:16:34.615Z,79.50
2019-05-01T06:17:33.610Z,79.30
2019-05-01T06:18:34.797Z,79.41
2019-05-01T06:19:34.582Z,78.79
2019-05-01T06:20:33.618Z,79.00
2019-05-01T06:21:34.671Z,78.83
2019-05-01T06:22:33.562Z,78.89
2019-05-01T06:23:34.395Z,79.10
2019-05-01T06:24:35.853Z,78.89
2019-05-01T06:25:34.563Z,79.64
2019-05-01T06:26:37.412Z,79.54
2019-05-01T06:27:34.513Z,79.41
2019-05-01T06:28:33.514Z,79.24
2019-05-01T06:29:35.908Z,79.75
2019-05-01T06:30:33.485Z,80.12
2019-05-01T06:31:33.499Z,79.85
2019-05-01T06:32:34.719Z,80.22
2019-05-01T06:33:43.875Z,80.12
2019-05-01T06:34:34.432Z,79.61
2019-05-01T06:35:33.976Z,80.05
2019-05-01T06:36:33.474Z,79.96
2019-05-01T06:37:33.411Z,80.02
2019-05-01T06:38:36.253Z,80.02
2019-05-01T06:39:33.417Z,79.71
2019-05-01T06:40:33.372Z,79.82
2019-05-01T06:41:39.128Z,79.82
2019-05-01T06:42:34.365Z,80.02
2019-05-01T06:43:33.334Z,80.16
2019-05-01T06:44:38.375Z,79.50
2019-05-01T06:45:34.306Z,80.02
2019-05-01T06:46:35.445Z,79.71
2019-05-01T06:47:33.314Z,79.61
2019-05-01T06:48:33.475Z,79.61
2019-05-01T06:49:33.275Z,79.82
2019-05-01T06:50:37.130Z,79.41
2019-05-01T06:51:34.259Z,79.50
2019-05-01T06:52:33.245Z,79.61
2019-05-01T06:53:36.181Z,79.41
2019-05-01T06:54:34.210Z,79.75
2019-05-01T06:55:33.198Z,79.91
2019-05-01T06:56:33.191Z,79.82
2019-05-01T06:57:33.181Z,79.61
2019-05-01T06:58:33.208Z,80.02
2019-05-01T06:59:33.399Z,80.12
2019-05-01T07:00:33.148Z,79.61
2019-05-01T07:01:33.143Z,79.50
2019-05-01T07:02:35.089Z,79.71
2019-05-01T07:03:33.149Z,79.71
2019-05-01T07:04:38.152Z,79.20
2019-05-01T07:05:34.111Z,79.16
2019-05-01T07:06:33.091Z,79.06
2019-05-01T07:07:33.072Z,79.16
2019-05-01T07:08:34.292Z,79.06
2019-05-01T07:09:33.086Z,79.27
2019-05-01T07:10:43.512Z,78.75
2019-05-01T07:11:34.119Z,79.16
2019-05-01T07:12:33.088Z,79.16
2019-05-01T07:13:35.507Z,78.96
2019-05-01T07:14:34.020Z,79.06
2019-05-01T07:15:33.009Z,78.86
2019-05-01T07:16:37.559Z,79.16
2019-05-01T07:17:33.965Z,79.27
2019-05-01T07:18:32.972Z,79.16
2019-05-01T07:19:35.574Z,79.16
2019-05-01T07:20:32.988Z,79.47
2019-05-01T07:21:32.929Z,79.47
2019-05-01T07:22:37.044Z,79.47
2019-05-01T07:23:33.896Z,79.37
2019-05-01T07:24:32.921Z,79.27
2019-05-01T07:25:34.827Z,79.16
2019-05-01T07:26:33.868Z,79.06
2019-05-01T07:27:32.871Z,79.06
2019-05-01T07:28:34.390Z,79.06
2019-05-01T07:29:33.055Z,78.65
2019-05-01T07:30:32.869Z,79.16
2019-05-01T07:31:32.830Z,78.75
2019-05-01T07:32:36.410Z,78.86
2019-05-01T07:33:33.798Z,78.55
2019-05-01T07:34:32.794Z,78.96
2019-05-01T07:35:36.382Z,79.16
2019-05-01T07:36:32.823Z,79.47
2019-05-01T07:37:32.761Z,79.88
2019-05-01T07:38:37.622Z,79.64
2019-05-01T07:39:33.750Z,79.68
2019-05-01T07:40:32.737Z,79.37
2019-05-01T07:41:34.029Z,79.47
2019-05-01T07:42:32.745Z,80.08
2019-05-01T07:43:32.682Z,79.88
2019-05-01T07:44:33.808Z,79.57
2019-05-01T07:45:32.666Z,79.98
2019-05-01T07:46:32.666Z,79.88
2019-05-01T07:47:32.673Z,79.78
2019-05-01T07:48:36.221Z,80.02
2019-05-01T07:49:33.624Z,79.91
2019-05-01T07:50:32.823Z,79.98
2019-05-01T07:51:32.615Z,79.68
2019-05-01T07:52:32.603Z,79.61
2019-05-01T07:53:32.576Z,79.47
2019-05-01T07:54:32.566Z,79.61
2019-05-01T07:55:32.584Z,79.88
2019-05-01T07:56:32.554Z,80.02
2019-05-01T07:57:34.244Z,79.41
2019-05-01T07:58:33.524Z,80.02
2019-05-01T07:59:32.512Z,79.82
2019-05-01T08:00:32.514Z,79.91
2019-05-01T08:01:32.495Z,79.82
2019-05-01T08:02:33.037Z,80.02
2019-05-01T08:03:32.477Z,80.94
2019-05-01T08:04:36.487Z,80.29
2019-05-01T08:05:32.485Z,80.22
2019-05-01T08:06:32.457Z,80.12
2019-05-01T08:07:33.598Z,79.91
2019-05-01T08:08:32.416Z,79.88
2019-05-01T08:09:32.418Z,79.78
2019-05-01T08:10:33.891Z,79.82
2019-05-01T08:11:32.384Z,80.02
2019-05-01T08:12:32.382Z,80.19
2019-05-01T08:13:34.984Z,79.50
2019-05-01T08:14:32.376Z,79.88
2019-05-01T08:15:32.813Z,79.41
2019-05-01T08:16:32.333Z,79.71
2019-05-01T08:17:32.359Z,79.91
2019-05-01T08:18:32.315Z,79.68
2019-05-01T08:19:34.849Z,79.71
2019-05-01T08:20:33.289Z,79.82
2019-05-01T08:21:32.294Z,79.82
2019-05-01T08:22:37.161Z,80.02
2019-05-01T08:23:33.284Z,79.91
2019-05-01T08:24:32.247Z,79.98
2019-05-01T08:25:33.298Z,79.98
2019-05-01T08:26:32.261Z,79.68
2019-05-01T08:27:32.227Z,80.08
2019-05-01T08:28:33.297Z,79.88
2019-05-01T08:29:32.195Z,79.47
2019-05-01T08:30:32.194Z,79.47
2019-05-01T08:31:32.195Z,79.98
2019-05-01T08:32:38.282Z,79.06
2019-05-01T08:33:33.188Z,79.47
2019-05-01T08:34:32.145Z,79.57
2019-05-01T08:35:36.449Z,79.98
2019-05-01T08:36:33.133Z,80.60
2019-05-01T08:37:32.150Z,79.98
2019-05-01T08:38:34.314Z,81.01
2019-05-01T08:39:32.124Z,80.94
2019-05-01T08:40:32.116Z,80.74
2019-05-01T08:41:33.067Z,81.62
2019-05-01T08:42:32.087Z,81.01
2019-05-01T08:43:32.074Z,81.15
2019-05-01T08:44:32.064Z,81.15
2019-05-01T08:45:35.715Z,81.04
2019-05-01T08:46:33.014Z,81.62
2019-05-01T08:47:32.001Z,80.90
2019-05-01T08:48:35.904Z,81.24
2019-05-01T08:49:33.008Z,80.60
2019-05-01T08:50:31.978Z,80.19
2019-05-01T08:51:34.950Z,79.78
2019-05-01T08:52:31.999Z,79.57
2019-05-01T08:53:31.955Z,79.88
2019-05-01T08:54:33.559Z,79.88
2019-05-01T08:55:31.920Z,79.47
2019-05-01T08:56:31.921Z,79.37
2019-05-01T08:57:34.468Z,79.06
2019-05-01T08:58:32.901Z,79.47
2019-05-01T08:59:31.886Z,79.57
2019-05-01T09:00:35.967Z,78.92
2019-05-01T09:01:32.860Z,79.33
2019-05-01T09:02:31.845Z,79.27
2019-05-01T09:03:31.851Z,79.13
2019-05-01T09:04:32.414Z,79.13
2019-05-01T09:05:33.946Z,78.72
2019-05-01T09:06:34.765Z,78.82
2019-05-01T09:07:31.845Z,78.92
2019-05-01T09:08:32.409Z,79.02
2019-05-01T09:09:33.347Z,79.13
2019-05-01T09:10:31.754Z,78.68
2019-05-01T09:11:36.122Z,78.72
2019-05-01T09:12:31.794Z,78.82
2019-05-01T09:13:31.767Z,78.61
2019-05-01T09:14:34.974Z,78.92
2019-05-01T09:15:32.715Z,78.92
2019-05-01T09:16:31.700Z,79.13
2019-05-01T09:17:31.682Z,78.88
2019-05-01T09:18:31.702Z,79.19
2019-05-01T09:19:31.677Z,78.99
2019-05-01T09:20:31.655Z,78.58
2019-05-01T09:21:33.267Z,78.58
2019-05-01T09:22:32.632Z,78.27
2019-05-01T09:23:34.265Z,78.07
2019-05-01T09:24:31.614Z,78.48
2019-05-01T09:25:35.381Z,78.00
2019-05-01T09:26:32.604Z,78.61
2019-05-01T09:27:31.579Z,78.72
2019-05-01T09:28:36.025Z,78.78
2019-05-01T09:29:32.548Z,78.92
2019-05-01T09:30:31.542Z,79.09
2019-05-01T09:31:33.867Z,78.99
2019-05-01T09:32:31.529Z,78.68
2019-05-01T09:33:32.111Z,78.78
2019-05-01T09:34:31.509Z,78.78
2019-05-01T09:35:31.497Z,78.99
2019-05-01T09:36:31.512Z,78.07
2019-05-01T09:37:31.467Z,78.07
2019-05-01T09:38:31.512Z,78.07
2019-05-01T09:39:31.451Z,77.97
2019-05-01T09:40:31.439Z,77.76
2019-05-01T09:41:37.898Z,77.52
2019-05-01T09:42:32.465Z,77.97
2019-05-01T09:43:35.531Z,76.94
2019-05-01T09:44:31.389Z,77.56
2019-05-01T09:45:31.390Z,77.31
2019-05-01T09:46:31.398Z,76.90
2019-05-01T09:47:31.393Z,76.50
2019-05-01T09:48:31.352Z,76.81
2019-05-01T09:49:31.360Z,77.01
2019-05-01T09:50:31.661Z,76.60
2019-05-01T09:51:31.328Z,76.67
2019-05-01T09:52:31.318Z,76.70
2019-05-01T09:53:34.342Z,76.56
2019-05-01T09:54:31.307Z,76.56
2019-05-01T09:55:31.275Z,76.36
2019-05-01T09:56:31.283Z,76.26
2019-05-01T09:57:31.265Z,76.46
2019-05-01T09:58:31.278Z,76.56
2019-05-01T09:59:31.233Z,76.36
2019-05-01T10:00:31.255Z,76.67
2019-05-01T10:01:32.954Z,76.36
2019-05-01T10:02:31.200Z,76.46
2019-05-01T10:03:31.212Z,76.36
2019-05-01T10:04:32.386Z,76.12
2019-05-01T10:05:31.208Z,76.56
2019-05-01T10:06:31.158Z,76.84
2019-05-01T10:07:31.167Z,76.73
2019-05-01T10:08:34.827Z,76.73
2019-05-01T10:09:32.147Z,76.32
2019-05-01T10:10:31.117Z,76.22
2019-05-01T10:11:31.113Z,76.32
2019-05-01T10:12:31.107Z,75.16
2019-05-01T10:13:31.081Z,75.37
2019-05-01T10:14:31.686Z,75.51
2019-05-01T10:15:31.073Z,75.20
2019-05-01T10:16:31.055Z,75.54
2019-05-01T10:17:31.045Z,75.41
2019-05-01T10:18:31.040Z,76.26
2019-05-01T10:19:31.035Z,76.36
2019-05-01T10:20:31.058Z,76.73
2019-05-01T10:21:30.995Z,77.04
2019-05-01T10:22:32.861Z,76.73
2019-05-01T10:23:31.981Z,76.12
2019-05-01T10:24:31.934Z,76.22
2019-05-01T10:25:32.049Z,76.22
2019-05-01T10:26:30.938Z,75.71
2019-05-01T10:27:35.572Z,75.92
2019-05-01T10:28:31.926Z,75.61
2019-05-01T10:29:30.918Z,75.98
2019-05-01T10:30:31.631Z,76.19
2019-05-01T10:31:30.888Z,76.39
2019-05-01T10:32:30.913Z,75.07
2019-05-01T10:33:32.693Z,75.37
2019-05-01T10:34:30.873Z,75.57
2019-05-01T10:35:41.926Z,75.37
2019-05-01T10:36:31.824Z,75.44
2019-05-01T10:37:33.576Z,75.68
2019-05-01T10:38:30.810Z,75.34
2019-05-01T10:39:30.807Z,75.54
2019-05-01T10:40:32.252Z,74.11
2019-05-01T10:41:30.772Z,74.32
2019-05-01T10:42:30.764Z,74.62
2019-05-01T10:43:30.785Z,74.11
2019-05-01T10:44:30.762Z,74.49
2019-05-01T10:45:30.736Z,74.62
2019-05-01T10:46:30.724Z,74.21
2019-05-01T10:47:30.742Z,74.38
2019-05-01T10:48:30.775Z,74.49
2019-05-01T10:49:30.715Z,75.30
2019-05-01T10:50:30.678Z,74.18
2019-05-01T10:51:30.696Z,74.08
2019-05-01T10:52:30.664Z,73.67
2019-05-01T10:53:30.657Z,73.54
2019-05-01T10:54:30.666Z,73.74
2019-05-01T10:55:30.663Z,73.13
2019-05-01T10:56:30.661Z,73.74
2019-05-01T10:57:35.192Z,73.33
2019-05-01T10:58:31.636Z,73.23
2019-05-01T10:59:30.604Z,73.33
2019-05-01T11:00:30.571Z,73.60
2019-05-01T11:01:30.597Z,73.33
2019-05-01T11:02:30.552Z,72.89
2019-05-01T11:03:30.552Z,72.38
2019-05-01T11:04:30.555Z,72.69
2019-05-01T11:05:30.539Z,72.78
2019-05-01T11:06:30.547Z,72.99
2019-05-01T11:07:30.513Z,73.02
2019-05-01T11:08:30.486Z,72.52
2019-05-01T11:09:30.474Z,72.38
2019-05-01T11:10:30.471Z,72.89
2019-05-01T11:11:30.769Z,72.48
2019-05-01T11:12:30.480Z,72.08
2019-05-01T11:13:30.429Z,71.47
2019-05-01T11:14:30.459Z,71.33
2019-05-01T11:15:30.414Z,71.23
2019-05-01T11:16:30.400Z,71.33
2019-05-01T11:17:30.388Z,71.84
2019-05-01T11:18:30.383Z,71.94
2019-05-01T11:19:30.400Z,72.04
2019-05-01T11:20:30.385Z,71.43
2019-05-01T11:21:30.346Z,70.89
2019-05-01T11:22:30.343Z,71.12
2019-05-01T11:23:30.338Z,71.09
2019-05-01T11:24:30.371Z,70.79
2019-05-01T11:25:30.308Z,70.58
2019-05-01T11:26:30.293Z,70.58
2019-05-01T11:27:30.283Z,70.38
2019-05-01T11:28:30.287Z,70.79
2019-05-01T11:29:30.298Z,71.19
2019-05-01T11:30:30.258Z,70.89
2019-05-01T11:31:30.265Z,70.58
2019-05-01T11:32:30.290Z,71.09
2019-05-01T11:33:30.227Z,71.19
2019-05-01T11:34:30.201Z,70.99
2019-05-01T11:35:30.240Z,70.99
2019-05-01T11:36:30.179Z,70.48
2019-05-01T11:37:30.218Z,70.18
2019-05-01T11:38:30.173Z,70.68
2019-05-01T11:39:30.166Z,70.51
2019-05-01T11:40:30.158Z,70.58
2019-05-01T11:41:30.141Z,69.87
2019-05-01T11:42:30.152Z,69.77
2019-05-01T11:43:30.106Z,70.38
2019-05-01T11:44:30.099Z,70.38
2019-05-01T11:45:30.082Z,70.38
2019-05-01T11:46:30.075Z,70.89
2019-05-01T11:47:30.110Z,71.19
2019-05-01T11:48:31.957Z,71.19
2019-05-01T11:49:30.128Z,70.28
2019-05-01T11:50:30.031Z,70.38
2019-05-01T11:51:30.043Z,70.25
2019-05-01T11:52:30.078Z,70.14
2019-05-01T11:53:30.015Z,70.14
2019-05-01T11:54:30.011Z,70.25
2019-05-01T11:55:30.028Z,69.53
2019-05-01T11:56:30.004Z,69.94
2019-05-01T11:57:29.975Z,69.84
2019-05-01T11:58:29.953Z,69.84
2019-05-01T11:59:32.608Z,70.45
2019-05-01T12:00:29.997Z,69.43
2019-05-01T12:01:29.948Z,69.84
2019-05-01T12:02:29.911Z,69.23
2019-05-01T12:03:29.905Z,69.43
2019-05-01T12:04:29.881Z,69.33
2019-05-01T12:05:29.955Z,69.84
2019-05-01T12:06:29.870Z,70.55
2019-05-01T12:07:29.871Z,69.43
2019-05-01T12:08:29.847Z,69.23
2019-05-01T12:09:29.835Z,69.50
2019-05-01T12:10:29.850Z,68.79
2019-05-01T12:11:29.855Z,69.09
2019-05-01T12:12:29.806Z,68.89
2019-05-01T12:13:43.042Z,69.70
2019-05-01T12:14:30.784Z,69.17
2019-05-01T12:15:29.770Z,69.47
2019-05-01T12:16:29.797Z,68.96
2019-05-01T12:17:29.752Z,68.73
2019-05-01T12:18:29.732Z,68.35
2019-05-01T12:19:29.742Z,68.25
2019-05-01T12:20:29.736Z,68.12
2019-05-01T12:21:29.730Z,68.12
2019-05-01T12:22:29.695Z,67.10
2019-05-01T12:23:29.682Z,67.71
2019-05-01T12:24:29.672Z,68.01
2019-05-01T12:25:29.665Z,67.91
2019-05-01T12:26:29.679Z,68.32
2019-05-01T12:27:29.642Z,67.71
2019-05-01T12:28:29.619Z,67.50
2019-05-01T12:29:29.609Z,67.41
2019-05-01T12:30:29.604Z,67.30
2019-05-01T12:31:31.237Z,67.91
2019-05-01T12:32:29.600Z,68.01
2019-05-01T12:33:29.571Z,68.01
2019-05-01T12:34:29.565Z,68.01
2019-05-01T12:35:29.555Z,67.61
2019-05-01T12:36:36.363Z,67.78
2019-05-01T12:37:30.558Z,68.19
2019-05-01T12:38:29.520Z,67.68
2019-05-01T12:39:29.506Z,67.58
2019-05-01T12:40:29.494Z,66.86
2019-05-01T12:41:30.044Z,67.17
2019-05-01T12:42:29.472Z,67.68
2019-05-01T12:43:29.461Z,67.58
2019-05-01T12:44:29.491Z,66.46
2019-05-01T12:45:29.447Z,67.07
2019-05-01T12:46:30.042Z,66.33
2019-05-01T12:47:29.413Z,66.43
2019-05-01T12:48:29.443Z,65.85
2019-05-01T12:49:29.405Z,66.56
2019-05-01T12:50:29.393Z,66.26
2019-05-01T12:51:29.380Z,66.23
2019-05-01T12:52:29.365Z,66.36
2019-05-01T12:53:29.391Z,66.33
2019-05-01T12:54:29.355Z,66.02
2019-05-01T12:55:29.334Z,65.59
2019-05-01T12:56:29.313Z,65.82
2019-05-01T12:57:29.354Z,65.92
2019-05-01T12:58:29.334Z,65.82
2019-05-01T12:59:29.297Z,66.02
2019-05-01T13:00:29.322Z,66.02
2019-05-01T13:01:29.281Z,66.33
2019-05-01T13:02:29.367Z,66.13
2019-05-01T13:03:29.262Z,66.23
2019-05-01T13:04:29.237Z,66.33
2019-05-01T13:05:29.233Z,66.13
2019-05-01T13:06:29.248Z,66.40
2019-05-01T13:07:29.256Z,65.99
2019-05-01T13:08:29.223Z,64.88
2019-05-01T13:09:29.231Z,64.47
2019-05-01T13:10:29.185Z,65.59
2019-05-01T13:11:29.165Z,65.18
2019-05-01T13:12:29.217Z,65.18
2019-05-01T13:13:29.183Z,64.17
2019-05-01T13:14:29.160Z,64.17
2019-05-01T13:15:29.121Z,63.26
2019-05-01T13:16:29.102Z,64.40
2019-05-01T13:17:29.092Z,63.96
2019-05-01T13:18:29.088Z,64.98
2019-05-01T13:19:29.104Z,63.96
2019-05-01T13:20:29.088Z,64.07
2019-05-01T13:21:29.060Z,64.88
2019-05-01T13:22:29.055Z,64.07
2019-05-01T13:23:29.051Z,63.86
2019-05-01T13:24:29.028Z,63.96
2019-05-01T13:25:29.032Z,64.47
2019-05-01T13:26:29.000Z,64.24
2019-05-01T13:27:29.009Z,64.24
2019-05-01T13:28:28.982Z,63.73
2019-05-01T13:29:28.965Z,64.34
2019-05-01T13:30:28.971Z,64.04
2019-05-01T13:31:29.009Z,63.53
2019-05-01T13:32:28.993Z,64.04
2019-05-01T13:33:28.917Z,63.83
2019-05-01T13:34:28.933Z,64.34
2019-05-01T13:35:30.540Z,63.83
2019-05-01T13:36:28.908Z,64.64
2019-05-01T13:37:28.875Z,64.31
2019-05-01T13:38:28.926Z,64.11
2019-05-01T13:39:28.883Z,63.70
2019-05-01T13:40:28.842Z,64.01
2019-05-01T13:41:28.843Z,63.81
2019-05-01T13:42:28.866Z,63.81
2019-05-01T13:43:28.817Z,62.99
2019-05-01T13:44:28.814Z,63.60
2019-05-01T13:45:28.788Z,64.01
2019-05-01T13:46:28.796Z,63.81
2019-05-01T13:47:28.808Z,64.01
2019-05-01T13:48:28.767Z,63.87
2019-05-01T13:49:28.752Z,63.67
2019-05-01T13:50:28.736Z,63.27
2019-05-01T13:51:28.785Z,63.47
2019-05-01T13:52:28.729Z,63.17
2019-05-01T13:53:28.702Z,63.27
2019-05-01T13:54:28.691Z,62.35
2019-05-01T13:55:28.734Z,61.98
2019-05-01T13:56:28.672Z,62.49
2019-05-01T13:57:28.696Z,62.29
2019-05-01T13:58:28.653Z,62.38
2019-05-01T13:59:28.658Z,62.38
2019-05-01T14:00:28.661Z,63.40
2019-05-01T14:01:28.646Z,64.21
2019-05-01T14:02:28.659Z,64.01
2019-05-01T14:03:28.594Z,62.46
2019-05-01T14:04:28.648Z,63.37
2019-05-01T14:05:28.610Z,63.78
2019-05-01T14:06:28.594Z,63.37
2019-05-01T14:07:28.550Z,63.57
2019-05-01T14:08:28.558Z,63.44
2019-05-01T14:09:28.551Z,62.33
2019-05-01T14:10:28.564Z,63.13
2019-05-01T14:11:28.502Z,63.04
2019-05-01T14:12:28.497Z,63.44
2019-05-01T14:13:28.495Z,62.33
2019-05-01T14:14:28.511Z,62.12
2019-05-01T14:15:28.464Z,62.23
2019-05-01T14:16:28.545Z,62.33
2019-05-01T14:17:28.448Z,62.12
2019-05-01T14:18:28.439Z,61.52
2019-05-01T14:19:28.420Z,61.41
2019-05-01T14:20:28.469Z,61.62
2019-05-01T14:21:28.400Z,61.11
2019-05-01T14:22:28.440Z,59.97
2019-05-01T14:23:28.389Z,60.17
2019-05-01T14:24:28.370Z,60.20
2019-05-01T14:25:28.394Z,60.48
2019-05-01T14:26:28.349Z,60.68
2019-05-01T14:27:28.338Z,59.87
2019-05-01T14:28:28.346Z,59.97
2019-05-01T14:29:28.357Z,59.16
2019-05-01T14:30:28.336Z,60.38
2019-05-01T14:31:28.302Z,60.17
2019-05-01T14:32:28.293Z,60.07
2019-05-01T14:33:28.285Z,59.67
2019-05-01T14:34:28.303Z,60.48
2019-05-01T14:35:28.250Z,59.29
2019-05-01T14:36:28.266Z,59.39
2019-05-01T14:37:29.803Z,59.29
2019-05-01T14:38:28.246Z,59.49
2019-05-01T14:39:28.215Z,60.00
2019-05-01T14:40:28.253Z,60.30
2019-05-01T14:41:28.233Z,60.50
2019-05-01T14:42:28.219Z,60.20
2019-05-01T14:43:28.165Z,59.59
2019-05-01T14:44:36.571Z,60.10
2019-05-01T14:45:29.182Z,60.20
2019-05-01T14:46:28.160Z,58.86
2019-05-01T14:47:28.123Z,58.89
2019-05-01T14:48:28.120Z,59.16
2019-05-01T14:49:28.142Z,59.56
2019-05-01T14:50:28.093Z,59.36
2019-05-01T14:51:28.084Z,59.16
2019-05-01T14:52:28.084Z,59.47
2019-05-01T14:53:28.070Z,59.87
2019-05-01T14:54:28.080Z,60.07
2019-05-01T14:55:28.069Z,60.48
2019-05-01T14:56:28.027Z,59.34
2019-05-01T14:57:28.058Z,58.83
2019-05-01T14:58:28.029Z,59.27
2019-05-01T14:59:28.013Z,59.56
2019-05-01T15:00:27.995Z,59.03
2019-05-01T15:01:27.987Z,59.34
2019-05-01T15:02:28.020Z,57.95
2019-05-01T15:03:27.954Z,56.23
2019-05-01T15:04:27.947Z,57.34
2019-05-01T15:05:27.970Z,57.75
2019-05-01T15:06:27.953Z,59.47
2019-05-01T15:07:27.910Z,60.27
2019-05-01T15:08:27.897Z,60.27
2019-05-01T15:09:27.933Z,60.25
2019-05-01T15:10:27.888Z,60.65
2019-05-01T15:11:27.920Z,60.14
2019-05-01T15:12:27.859Z,61.16
2019-05-01T15:13:27.871Z,60.35
2019-05-01T15:14:27.834Z,60.45
2019-05-01T15:15:27.852Z,59.14
2019-05-01T15:16:27.853Z,59.54
2019-05-01T15:17:27.822Z,59.16
2019-05-01T15:18:27.800Z,59.44
2019-05-01T15:19:27.789Z,59.54
2019-05-01T15:20:27.782Z,59.94
2019-05-01T15:21:27.795Z,59.14
2019-05-01T15:22:27.787Z,59.23
2019-05-01T15:23:27.735Z,58.73
2019-05-01T15:24:27.753Z,58.93
2019-05-01T15:25:27.750Z,59.44
2019-05-01T15:26:27.705Z,59.14
2019-05-01T15:27:27.717Z,59.23
2019-05-01T15:28:27.719Z,58.83
2019-05-01T15:29:27.689Z,59.34
2019-05-01T15:30:27.693Z,59.23
2019-05-01T15:31:27.658Z,58.63
2019-05-01T15:32:27.644Z,59.03
2019-05-01T15:33:27.689Z,58.93
2019-05-01T15:34:27.636Z,59.14
2019-05-01T15:35:27.643Z,59.14
2019-05-01T15:36:27.608Z,59.84
2019-05-01T15:37:27.595Z,59.21
2019-05-01T15:38:27.586Z,58.33
2019-05-01T15:39:27.625Z,57.92
2019-05-01T15:40:27.595Z,58.83
2019-05-01T15:41:27.582Z,59.03
2019-05-01T15:42:27.579Z,59.54
2019-05-01T15:43:27.553Z,59.34
2019-05-01T15:44:27.528Z,59.54
2019-05-01T15:45:27.508Z,59.54
2019-05-01T15:46:27.522Z,58.93
2019-05-01T15:47:27.484Z,58.83
2019-05-01T15:48:27.472Z,58.73
2019-05-01T15:49:27.486Z,58.93
2019-05-01T15:50:27.470Z,58.93
2019-05-01T15:51:27.470Z,59.23
2019-05-01T15:52:27.465Z,58.63
2019-05-01T15:53:27.419Z,58.73
2019-05-01T15:54:27.407Z,58.73
2019-05-01T15:55:27.399Z,58.83
2019-05-01T15:56:27.413Z,58.43
2019-05-01T15:57:27.375Z,58.93
2019-05-01T15:58:27.396Z,58.12
2019-05-01T15:59:27.367Z,57.62
2019-05-01T16:00:27.434Z,58.12
2019-05-01T16:01:27.346Z,58.43
2019-05-01T16:02:27.336Z,58.83
2019-05-01T16:03:27.343Z,58.63
2019-05-01T16:04:27.306Z,59.44
2019-05-01T16:05:27.306Z,59.34
2019-05-01T16:06:28.039Z,59.54
2019-05-01T16:07:27.341Z,59.03
2019-05-01T16:08:27.754Z,59.03
2019-05-01T16:09:27.249Z,58.83
2019-05-01T16:10:27.242Z,58.93
2019-05-01T16:11:27.226Z,57.92
2019-05-01T16:12:27.240Z,58.23
2019-05-01T16:13:27.235Z,58.93
2019-05-01T16:14:27.241Z,58.91
2019-05-01T16:15:27.201Z,58.73
2019-05-01T16:16:27.171Z,58.93
2019-05-01T16:17:27.176Z,58.93
2019-05-01T16:18:27.150Z,59.44
2019-05-01T16:19:27.186Z,59.64
2019-05-01T16:20:27.134Z,59.23
2019-05-01T16:21:27.126Z,59.23
2019-05-01T16:22:27.169Z,58.83
2019-05-01T16:23:27.100Z,58.73
2019-05-01T16:24:27.095Z,58.93
2019-05-01T16:25:27.082Z,59.34
2019-05-01T16:26:27.066Z,58.73
2019-05-01T16:27:27.091Z,58.96
2019-05-01T16:28:27.073Z,58.63
2019-05-01T16:29:27.039Z,59.14
2019-05-01T16:30:27.031Z,59.34
2019-05-01T16:31:27.015Z,59.67
2019-05-01T16:32:27.044Z,59.54
2019-05-01T16:33:27.025Z,59.56
2019-05-01T16:34:26.980Z,59.64
2019-05-01T16:35:26.987Z,59.34
2019-05-01T16:36:26.986Z,59.44
2019-05-01T16:37:26.952Z,59.14
2019-05-01T16:38:26.966Z,59.44
2019-05-01T16:39:26.935Z,59.34
2019-05-01T16:40:26.937Z,58.53
2019-05-01T16:41:27.751Z,59.34
2019-05-01T16:42:26.908Z,59.34
2019-05-01T16:43:26.931Z,59.54
2019-05-01T16:44:26.886Z,59.84
2019-05-01T16:45:26.954Z,59.94
2019-05-01T16:46:26.853Z,59.54
2019-05-01T16:47:26.847Z,59.23
2019-05-01T16:48:26.830Z,59.03
2019-05-01T16:49:26.844Z,59.34
2019-05-01T16:50:26.847Z,59.41
2019-05-01T16:51:26.793Z,59.11
2019-05-01T16:52:26.789Z,58.91
2019-05-01T16:53:27.294Z,58.70
2019-05-01T16:54:26.768Z,58.70
2019-05-01T16:55:26.780Z,59.41
2019-05-01T16:56:26.747Z,59.11
2019-05-01T16:57:26.729Z,59.31
2019-05-01T16:58:26.774Z,58.91
2019-05-01T16:59:26.721Z,59.31
2019-05-01T17:00:26.713Z,59.61
2019-05-01T17:01:26.699Z,59.81
2019-05-01T17:02:26.681Z,58.60
2019-05-01T17:03:26.719Z,59.21
2019-05-01T17:04:26.662Z,59.51
2019-05-01T17:05:26.660Z,59.11
2019-05-01T17:06:26.643Z,58.91
2019-05-01T17:07:26.638Z,59.41
2019-05-01T17:08:36.067Z,59.31
2019-05-01T17:09:27.606Z,59.84
2019-05-01T17:10:26.627Z,59.34
2019-05-01T17:11:26.586Z,59.44
2019-05-01T17:12:26.582Z,59.03
2019-05-01T17:13:26.563Z,59.84
2019-05-01T17:14:26.561Z,60.65
2019-05-01T17:15:26.594Z,59.54
2019-05-01T17:16:26.531Z,59.14
2019-05-01T17:17:26.534Z,59.54
2019-05-01T17:18:26.516Z,59.44
2019-05-01T17:19:26.533Z,59.54
2019-05-01T17:20:26.516Z,59.64
2019-05-01T17:21:26.494Z,60.14
2019-05-01T17:22:26.492Z,60.14
2019-05-01T17:23:26.491Z,60.05
2019-05-01T17:24:26.491Z,60.45
2019-05-01T17:25:29.319Z,60.45
2019-05-01T17:26:26.428Z,60.05
2019-05-01T17:27:26.425Z,59.34
2019-05-01T17:28:26.430Z,59.23
2019-05-01T17:29:26.393Z,59.44
2019-05-01T17:30:26.387Z,59.64
2019-05-01T17:31:26.377Z,59.34
2019-05-01T17:32:26.379Z,59.14
2019-05-01T17:33:26.352Z,59.23
2019-05-01T17:34:30.549Z,59.44
2019-05-01T17:35:26.346Z,59.23
2019-05-01T17:36:26.330Z,59.23
2019-05-01T17:37:26.317Z,59.74
2019-05-01T17:38:26.360Z,59.34
2019-05-01T17:39:26.319Z,59.34
2019-05-01T17:40:26.278Z,59.54
2019-05-01T17:41:26.994Z,59.47
2019-05-01T17:42:26.290Z,59.23
2019-05-01T17:43:26.247Z,59.06
2019-05-01T17:44:26.684Z,59.54
2019-05-01T17:45:29.971Z,59.23
2019-05-01T17:46:27.247Z,59.44
2019-05-01T17:47:26.995Z,59.44
2019-05-01T17:48:28.787Z,59.36
2019-05-01T17:49:27.203Z,59.67
2019-05-01T17:50:26.178Z,59.56
2019-05-01T17:51:26.161Z,59.56
2019-05-01T17:52:26.183Z,60.07
2019-05-01T17:53:26.143Z,60.20
2019-05-01T17:54:26.127Z,60.20
2019-05-01T17:55:26.112Z,60.00
2019-05-01T17:56:28.589Z,60.48
2019-05-01T17:57:26.130Z,60.61
2019-05-01T17:58:26.087Z,60.50
2019-05-01T17:59:26.074Z,60.50
2019-05-01T18:00:26.065Z,60.41
2019-05-01T18:01:27.917Z,60.91
2019-05-01T18:02:27.055Z,61.11
2019-05-01T18:03:26.039Z,60.61
2019-05-01T18:04:26.017Z,60.10
2019-05-01T18:05:26.011Z,60.20
2019-05-01T18:06:26.062Z,60.43
2019-05-01T18:07:28.857Z,61.14
2019-05-01T18:08:26.985Z,60.84
2019-05-01T18:09:25.979Z,60.94
2019-05-01T18:10:25.962Z,61.24
2019-05-01T18:11:25.976Z,61.55
2019-05-01T18:12:28.426Z,62.15
2019-05-01T18:13:25.930Z,62.18
2019-05-01T18:14:25.921Z,62.18
2019-05-01T18:15:25.954Z,62.18
2019-05-01T18:16:25.961Z,62.29
2019-05-01T18:17:25.891Z,62.18
2019-05-01T18:18:25.923Z,62.08
2019-05-01T18:19:25.881Z,62.08
2019-05-01T18:20:25.877Z,62.18
2019-05-01T18:21:25.875Z,62.38
2019-05-01T18:22:27.004Z,62.59
2019-05-01T18:23:25.859Z,62.29
2019-05-01T18:24:25.800Z,62.49
2019-05-01T18:25:28.246Z,62.08
2019-05-01T18:26:26.814Z,63.40
2019-05-01T18:27:25.790Z,63.12
2019-05-01T18:28:29.859Z,63.02
2019-05-01T18:29:26.755Z,63.23
2019-05-01T18:30:25.742Z,63.53
2019-05-01T18:31:27.894Z,62.52
2019-05-01T18:32:26.745Z,63.73
2019-05-01T18:33:27.103Z,63.32
2019-05-01T18:34:25.745Z,63.53
2019-05-01T18:35:25.689Z,63.53
2019-05-01T18:36:25.825Z,63.53
2019-05-01T18:37:25.668Z,63.43
2019-05-01T18:38:25.683Z,63.32
2019-05-01T18:39:27.003Z,63.93
2019-05-01T18:40:25.630Z,63.63
2019-05-01T18:41:25.620Z,63.93
2019-05-01T18:42:25.611Z,63.83
2019-05-01T18:43:26.956Z,63.73
2019-05-01T18:44:26.623Z,63.96
2019-05-01T18:45:26.601Z,63.93
2019-05-01T18:46:25.569Z,63.96
2019-05-01T18:47:25.561Z,63.83
2019-05-01T18:48:25.546Z,64.34
2019-05-01T18:49:25.598Z,64.07
2019-05-01T18:50:25.534Z,64.07
2019-05-01T18:51:25.549Z,63.96
2019-05-01T18:52:25.510Z,63.96